Погода Тлмачена 2 недели

Нитранский край, Словакия

16 - 29 июля
  • 16июля
    Сегодня
    +22°
    +33°
    Практически безоблачно
    ВремяПогодаТемператураВлажностьДавлениеВетер, м/сВероятность осадков
    02:00Ясно и безоблачно+24°C70 %743 мм3.0 м/с2 %
    05:00Ясно и безоблачно+24°C73 %743 мм3.1 м/с2 %
    08:00Практически безоблачно+26°C67 %743 мм3.3 м/с2 %
    11:00Практически безоблачно+30°C56 %743 мм3.4 м/с5 %
    14:00Практически безоблачно+33°C39 %742 мм3.5 м/с10 %
    17:00Облачно с прояснениями+33°C48 %743 мм2.8 м/с25 %
    20:00Облачно с прояснениями+28°C70 %743 мм2.8 м/с11 %
    23:00Облачно с прояснениями+24°C91 %744 мм2.4 м/с1 %
  • 17июля
    Среда
    +20°
    +34°
    Небольшая облачность
    ВремяПогодаТемператураВлажностьДавлениеВетер, м/сВероятность осадков
    02:00Ясно и безоблачно+23°C90 %744 мм2.2 м/с2 %
    05:00Ясно и безоблачно+22°C88 %745 мм2.8 м/с2 %
    08:00Ясно и безоблачно+25°C72 %746 мм3.3 м/с1 %
    11:00Практически безоблачно+31°C56 %747 мм2.8 м/с8 %
    14:00Небольшая облачность+32°C51 %746 мм3.5 м/с24 %
    17:00Ясно и безоблачно+33°C61 %746 мм4.0 м/с37 %
    20:00Ясно и безоблачно+27°C68 %747 мм3.4 м/с13 %
    23:00Ясно и безоблачно+23°C80 %747 мм2.7 м/с2 %
  • 18июля
    Четверг
    +20°
    +34°
    Ясно и безоблачно
    ВремяПогодаТемператураВлажностьДавлениеВетер, м/сВероятность осадков
    02:00Ясно и безоблачно+22°C84 %748 мм2.4 м/с8 %
    05:00Ясно и безоблачно+21°C85 %748 мм2.3 м/с9 %
    08:00Ясно и безоблачно+24°C70 %748 мм2.7 м/с2 %
    11:00Практически безоблачно+30°C57 %749 мм2.2 м/с11 %
    14:00Ясно и безоблачно+32°C48 %748 мм2.9 м/с15 %
    17:00Ясно и безоблачно+33°C43 %747 мм3.7 м/с8 %
    20:00Ясно и безоблачно+28°C54 %748 мм2.8 м/с5 %
    23:00Облачно с прояснениями+24°C69 %748 мм2.8 м/с2 %
  • 19июля
    Пятница
    +18°
    +32°
    Ясно и безоблачно
    ВремяПогодаТемператураВлажностьДавлениеВетер, м/сВероятность осадков
    02:00Облачно с прояснениями+22°C68 %748 мм2.5 м/с4 %
    05:00Ясно и безоблачно+21°C81 %748 мм2.3 м/с4 %
    08:00Практически безоблачно+25°C64 %749 мм2.0 м/с4 %
    11:00Небольшая облачность+29°C44 %749 мм1.8 м/с6 %
    14:00Ясно и безоблачно+31°C37 %748 мм3.9 м/с6 %
    17:00Ясно и безоблачно+30°C32 %747 мм3.5 м/с2 %
    20:00Ясно и безоблачно+26°C43 %747 мм3.1 м/с2 %
    23:00Ясно и безоблачно+22°C50 %747 мм3.3 м/с2 %
  • 20июля
    Суббота
    +18°
    +31°
    Облачно с прояснениями
    ВремяПогодаТемператураВлажностьДавлениеВетер, м/сВероятность осадков
    02:00Небольшая облачность+20°C64 %747 мм2.4 м/с2 %
    05:00Облачно с прояснениями+19°C75 %747 мм2.1 м/с2 %
    08:00Облачно с прояснениями+23°C57 %747 мм2.1 м/с2 %
    11:00Облачно с прояснениями+28°C39 %747 мм2.0 м/с2 %
    14:00Облачно с прояснениями+30°C35 %746 мм2.8 м/с4 %
    17:00Облачно с прояснениями+31°C33 %744 мм2.7 м/с2 %
    20:00Облачно с прояснениями+26°C49 %744 мм2.8 м/с2 %
    23:00Ясно и безоблачно+21°C64 %744 мм2.3 м/с2 %
Мы используем cookies
Соглашаюсь